sensor_id;sensor_type;location;lat;lon;timestamp;pressure;altitude;pressure_sealevel;temperature;humidity
10115;BME280;5097;43.260;27.812;2023-11-22T00:01:22;99596.91;;;12.39;90.73
10115;BME280;5097;43.260;27.812;2023-11-22T00:04:08;99593.09;;;12.44;89.91
10115;BME280;5097;43.260;27.812;2023-11-22T00:06:52;99582.06;;;12.24;90.91
10115;BME280;5097;43.260;27.812;2023-11-22T00:09:36;99597.53;;;12.17;90.93
10115;BME280;5097;43.260;27.812;2023-11-22T00:12:20;99587.16;;;12.27;90.02
10115;BME280;5097;43.260;27.812;2023-11-22T00:15:08;99577.63;;;12.37;91.08
10115;BME280;5097;43.260;27.812;2023-11-22T00:17:53;99587.78;;;12.31;89.21
10115;BME280;5097;43.260;27.812;2023-11-22T00:20:37;99568.28;;;12.19;89.80
10115;BME280;5097;43.260;27.812;2023-11-22T00:23:22;99585.03;;;12.32;90.56
10115;BME280;5097;43.260;27.812;2023-11-22T00:26:10;99571.25;;;12.01;89.57
10115;BME280;5097;43.260;27.812;2023-11-22T00:28:58;99572.09;;;10.80;97.36
10115;BME280;5097;43.260;27.812;2023-11-22T00:31:44;99563.03;;;10.55;100.00
10115;BME280;5097;43.260;27.812;2023-11-22T00:34:28;99562.56;;;11.19;98.59
10115;BME280;5097;43.260;27.812;2023-11-22T00:37:12;99559.78;;;11.48;95.18
10115;BME280;5097;43.260;27.812;2023-11-22T00:39:56;99553.44;;;11.50;92.91
10115;BME280;5097;43.260;27.812;2023-11-22T00:42:42;99555.94;;;11.12;95.17
10115;BME280;5097;43.260;27.812;2023-11-22T00:45:26;99561.19;;;11.26;94.66
10115;BME280;5097;43.260;27.812;2023-11-22T00:48:11;99553.47;;;11.23;94.79
10115;BME280;5097;43.260;27.812;2023-11-22T00:50:55;99561.00;;;11.29;94.08
10115;BME280;5097;43.260;27.812;2023-11-22T00:53:39;99553.03;;;11.16;95.11
10115;BME280;5097;43.260;27.812;2023-11-22T00:56:23;99539.75;;;11.31;93.22
10115;BME280;5097;43.260;27.812;2023-11-22T00:59:08;99555.84;;;11.40;93.50
10115;BME280;5097;43.260;27.812;2023-11-22T01:01:52;99549.16;;;11.07;93.14
10115;BME280;5097;43.260;27.812;2023-11-22T01:04:37;99557.25;;;11.19;93.00
10115;BME280;5097;43.260;27.812;2023-11-22T01:07:22;99551.13;;;10.77;96.68
10115;BME280;5097;43.260;27.812;2023-11-22T01:10:07;99531.53;;;10.52;99.90
10115;BME280;5097;43.260;27.812;2023-11-22T01:12:51;99553.56;;;11.21;95.95
10115;BME280;5097;43.260;27.812;2023-11-22T01:15:35;99552.00;;;9.75;100.00
10115;BME280;5097;43.260;27.812;2023-11-22T01:18:19;99541.19;;;10.38;100.00
10115;BME280;5097;43.260;27.812;2023-11-22T01:21:05;99550.03;;;10.66;100.00
10115;BME280;5097;43.260;27.812;2023-11-22T01:23:49;99535.59;;;10.99;95.91
10115;BME280;5097;43.260;27.812;2023-11-22T01:26:33;99541.88;;;10.84;96.36
10115;BME280;5097;43.260;27.812;2023-11-22T01:29:20;99541.81;;;10.98;95.74
10115;BME280;5097;43.260;27.812;2023-11-22T01:32:04;99497.97;;;10.25;99.53
10115;BME280;5097;43.260;27.812;2023-11-22T01:34:49;99526.63;;;10.75;99.63
10115;BME280;5097;43.260;27.812;2023-11-22T01:37:34;99521.50;;;9.85;100.00
10115;BME280;5097;43.260;27.812;2023-11-22T01:40:18;99524.34;;;10.54;100.00
10115;BME280;5097;43.260;27.812;2023-11-22T01:43:03;99508.91;;;10.62;99.78
10115;BME280;5097;43.260;27.812;2023-11-22T01:45:47;99525.94;;;11.13;95.93
10115;BME280;5097;43.260;27.812;2023-11-22T01:48:31;99512.06;;;10.82;96.25
10115;BME280;5097;43.260;27.812;2023-11-22T01:51:18;99517.66;;;11.04;97.09
10115;BME280;5097;43.260;27.812;2023-11-22T01:54:04;99515.00;;;11.04;95.07
10115;BME280;5097;43.260;27.812;2023-11-22T01:56:51;99511.13;;;10.83;95.67
10115;BME280;5097;43.260;27.812;2023-11-22T01:59:35;99505.59;;;11.00;94.20
10115;BME280;5097;43.260;27.812;2023-11-22T02:02:19;99495.84;;;11.01;93.65
10115;BME280;5097;43.260;27.812;2023-11-22T02:05:04;99493.03;;;10.04;100.00
10115;BME280;5097;43.260;27.812;2023-11-22T02:07:48;99501.06;;;10.61;98.51
10115;BME280;5097;43.260;27.812;2023-11-22T02:10:34;99497.78;;;10.57;96.71
10115;BME280;5097;43.260;27.812;2023-11-22T02:13:19;99502.63;;;11.05;95.97
10115;BME280;5097;43.260;27.812;2023-11-22T02:16:03;99507.59;;;10.40;100.00
10115;BME280;5097;43.260;27.812;2023-11-22T02:18:48;99513.22;;;10.63;97.94
10115;BME280;5097;43.260;27.812;2023-11-22T02:21:52;99501.97;;;10.74;96.95
10115;BME280;5097;43.260;27.812;2023-11-22T02:24:37;99501.78;;;11.04;95.82
10115;BME280;5097;43.260;27.812;2023-11-22T02:27:22;99479.84;;;10.04;100.00
10115;BME280;5097;43.260;27.812;2023-11-22T02:30:07;99501.56;;;10.38;100.00
10115;BME280;5097;43.260;27.812;2023-11-22T02:32:51;99493.00;;;10.77;98.29
10115;BME280;5097;43.260;27.812;2023-11-22T02:35:35;99500.03;;;10.05;100.00
10115;BME280;5097;43.260;27.812;2023-11-22T02:38:19;99489.09;;;10.40;100.00
10115;BME280;5097;43.260;27.812;2023-11-22T02:41:05;99490.00;;;10.68;98.71
10115;BME280;5097;43.260;27.812;2023-11-22T02:43:49;99491.81;;;10.24;100.00
10115;BME280;5097;43.260;27.812;2023-11-22T02:46:33;99482.13;;;10.25;100.00
10115;BME280;5097;43.260;27.812;2023-11-22T02:49:17;99487.88;;;10.88;96.80
10115;BME280;5097;43.260;27.812;2023-11-22T02:52:02;99503.34;;;11.21;94.01
10115;BME280;5097;43.260;27.812;2023-11-22T02:54:47;99494.13;;;10.87;95.25
10115;BME280;5097;43.260;27.812;2023-11-22T02:57:33;99465.56;;;10.65;95.39
10115;BME280;5097;43.260;27.812;2023-11-22T03:00:17;99505.22;;;11.19;94.00
10115;BME280;5097;43.260;27.812;2023-11-22T03:03:02;99504.34;;;11.33;93.88
10115;BME280;5097;43.260;27.812;2023-11-22T03:05:47;99508.00;;;10.76;94.50
10115;BME280;5097;43.260;27.812;2023-11-22T03:08:31;99506.72;;;10.69;96.48
10115;BME280;5097;43.260;27.812;2023-11-22T03:11:16;99499.28;;;10.61;96.16
10115;BME280;5097;43.260;27.812;2023-11-22T03:14:04;99495.88;;;10.59;96.43
10115;BME280;5097;43.260;27.812;2023-11-22T03:16:48;99508.69;;;9.93;100.00
10115;BME280;5097;43.260;27.812;2023-11-22T03:19:32;99520.22;;;10.21;100.00
10115;BME280;5097;43.260;27.812;2023-11-22T03:22:17;99516.41;;;9.96;100.00
10115;BME280;5097;43.260;27.812;2023-11-22T03:25:02;99507.38;;;10.29;100.00
10115;BME280;5097;43.260;27.812;2023-11-22T03:27:48;99516.41;;;10.83;100.00
10115;BME280;5097;43.260;27.812;2023-11-22T03:30:33;99513.63;;;10.99;98.17
10115;BME280;5097;43.260;27.812;2023-11-22T03:33:17;99519.44;;;10.33;99.74
10115;BME280;5097;43.260;27.812;2023-11-22T03:36:01;99525.19;;;9.97;100.00
10115;BME280;5097;43.260;27.812;2023-11-22T03:38:46;99489.94;;;9.98;100.00
10115;BME280;5097;43.260;27.812;2023-11-22T03:41:30;99530.72;;;10.37;100.00
10115;BME280;5097;43.260;27.812;2023-11-22T03:44:14;99526.13;;;10.24;100.00
10115;BME280;5097;43.260;27.812;2023-11-22T03:46:59;99524.78;;;9.88;100.00
10115;BME280;5097;43.260;27.812;2023-11-22T03:49:43;99504.91;;;9.83;100.00
10115;BME280;5097;43.260;27.812;2023-11-22T03:52:27;99444.56;;;9.48;100.00
10115;BME280;5097;43.260;27.812;2023-11-22T03:55:12;99516.03;;;10.31;100.00
10115;BME280;5097;43.260;27.812;2023-11-22T03:57:56;99517.03;;;9.71;100.00
10115;BME280;5097;43.260;27.812;2023-11-22T04:00:40;99527.13;;;9.48;100.00
10115;BME280;5097;43.260;27.812;2023-11-22T04:03:25;99503.75;;;9.58;100.00
10115;BME280;5097;43.260;27.812;2023-11-22T04:06:09;99521.50;;;9.85;100.00
10115;BME280;5097;43.260;27.812;2023-11-22T04:08:53;99535.53;;;9.55;100.00
10115;BME280;5097;43.260;27.812;2023-11-22T04:11:37;99526.88;;;9.53;100.00
10115;BME280;5097;43.260;27.812;2023-11-22T04:14:21;99521.47;;;9.70;100.00
10115;BME280;5097;43.260;27.812;2023-11-22T04:17:05;99523.72;;;9.62;100.00
10115;BME280;5097;43.260;27.812;2023-11-22T04:19:51;99529.78;;;9.79;100.00
10115;BME280;5097;43.260;27.812;2023-11-22T04:22:36;99533.41;;;9.62;100.00
10115;BME280;5097;43.260;27.812;2023-11-22T04:25:20;99513.91;;;9.50;100.00
10115;BME280;5097;43.260;27.812;2023-11-22T04:28:04;99537.38;;;9.38;100.00
10115;BME280;5097;43.260;27.812;2023-11-22T04:30:48;99533.94;;;9.22;100.00
10115;BME280;5097;43.260;27.812;2023-11-22T04:33:32;99531.13;;;9.55;100.00
10115;BME280;5097;43.260;27.812;2023-11-22T04:36:18;99544.41;;;9.54;100.00
10115;BME280;5097;43.260;27.812;2023-11-22T04:39:05;99526.16;;;9.35;100.00
10115;BME280;5097;43.260;27.812;2023-11-22T04:41:49;99539.53;;;9.62;100.00
10115;BME280;5097;43.260;27.812;2023-11-22T04:44:34;99539.03;;;9.25;100.00
10115;BME280;5097;43.260;27.812;2023-11-22T04:47:18;99522.91;;;9.15;100.00
10115;BME280;5097;43.260;27.812;2023-11-22T04:50:02;99539.16;;;9.54;100.00
10115;BME280;5097;43.260;27.812;2023-11-22T04:52:48;99534.63;;;9.10;100.00
10115;BME280;5097;43.260;27.812;2023-11-22T04:55:32;99534.47;;;9.13;100.00
10115;BME280;5097;43.260;27.812;2023-11-22T04:58:16;99553.84;;;9.12;100.00
10115;BME280;5097;43.260;27.812;2023-11-22T05:01:00;99553.59;;;9.00;100.00
10115;BME280;5097;43.260;27.812;2023-11-22T05:03:45;99566.75;;;9.32;100.00
10115;BME280;5097;43.260;27.812;2023-11-22T05:06:29;99572.53;;;9.23;100.00
10115;BME280;5097;43.260;27.812;2023-11-22T05:09:14;99564.03;;;9.02;100.00
10115;BME280;5097;43.260;27.812;2023-11-22T05:12:00;99551.13;;;8.65;100.00
10115;BME280;5097;43.260;27.812;2023-11-22T05:14:44;99570.63;;;8.61;100.00
10115;BME280;5097;43.260;27.812;2023-11-22T05:17:28;99566.56;;;8.71;100.00
10115;BME280;5097;43.260;27.812;2023-11-22T05:20:12;99575.78;;;8.96;100.00
10115;BME280;5097;43.260;27.812;2023-11-22T05:22:57;99586.41;;;9.57;100.00
10115;BME280;5097;43.260;27.812;2023-11-22T05:25:42;99591.88;;;9.54;100.00
10115;BME280;5097;43.260;27.812;2023-11-22T05:28:26;99587.06;;;9.77;100.00
10115;BME280;5097;43.260;27.812;2023-11-22T05:31:11;99589.22;;;9.70;100.00
10115;BME280;5097;43.260;27.812;2023-11-22T05:33:55;99593.84;;;9.81;100.00
10115;BME280;5097;43.260;27.812;2023-11-22T05:36:39;99598.16;;;9.82;100.00
10115;BME280;5097;43.260;27.812;2023-11-22T05:39:24;99600.34;;;10.20;100.00
10115;BME280;5097;43.260;27.812;2023-11-22T05:42:09;99604.88;;;10.32;100.00
10115;BME280;5097;43.260;27.812;2023-11-22T05:44:54;99612.41;;;10.24;100.00
10115;BME280;5097;43.260;27.812;2023-11-22T05:47:38;99610.31;;;10.45;100.00
10115;BME280;5097;43.260;27.812;2023-11-22T05:50:23;99619.06;;;10.89;100.00
10115;BME280;5097;43.260;27.812;2023-11-22T05:53:07;99608.63;;;11.15;100.00
10115;BME280;5097;43.260;27.812;2023-11-22T05:55:53;99620.50;;;11.22;100.00
10115;BME280;5097;43.260;27.812;2023-11-22T05:58:39;99631.28;;;11.19;100.00
10115;BME280;5097;43.260;27.812;2023-11-22T06:01:23;99630.47;;;11.46;100.00
10115;BME280;5097;43.260;27.812;2023-11-22T06:04:09;99646.47;;;11.30;100.00
10115;BME280;5097;43.260;27.812;2023-11-22T06:06:53;99651.03;;;10.41;100.00
10115;BME280;5097;43.260;27.812;2023-11-22T06:09:37;99661.63;;;10.25;100.00
10115;BME280;5097;43.260;27.812;2023-11-22T06:12:21;99665.28;;;9.92;100.00
10115;BME280;5097;43.260;27.812;2023-11-22T06:15:08;99667.84;;;9.94;100.00
10115;BME280;5097;43.260;27.812;2023-11-22T06:17:52;99679.53;;;10.20;100.00
10115;BME280;5097;43.260;27.812;2023-11-22T06:20:36;99668.63;;;10.26;100.00
10115;BME280;5097;43.260;27.812;2023-11-22T06:23:20;99577.50;;;9.90;100.00
10115;BME280;5097;43.260;27.812;2023-11-22T06:26:04;99668.69;;;10.55;100.00
10115;BME280;5097;43.260;27.812;2023-11-22T06:28:49;99663.88;;;11.05;100.00
10115;BME280;5097;43.260;27.812;2023-11-22T06:31:34;99668.81;;;11.80;100.00
10115;BME280;5097;43.260;27.812;2023-11-22T06:34:18;99666.50;;;12.29;100.00
10115;BME280;5097;43.260;27.812;2023-11-22T06:37:03;99678.59;;;12.46;100.00
10115;BME280;5097;43.260;27.812;2023-11-22T06:39:47;99688.59;;;12.81;100.00
10115;BME280;5097;43.260;27.812;2023-11-22T06:42:31;99688.19;;;13.24;100.00
10115;BME280;5097;43.260;27.812;2023-11-22T06:45:16;99664.81;;;13.05;100.00
10115;BME280;5097;43.260;27.812;2023-11-22T06:48:02;99706.84;;;13.35;100.00
10115;BME280;5097;43.260;27.812;2023-11-22T06:50:46;99706.25;;;13.06;100.00
10115;BME280;5097;43.260;27.812;2023-11-22T06:53:30;99689.69;;;13.28;100.00
10115;BME280;5097;43.260;27.812;2023-11-22T06:56:14;99685.72;;;13.34;100.00
10115;BME280;5097;43.260;27.812;2023-11-22T06:58:58;99708.00;;;13.57;100.00
10115;BME280;5097;43.260;27.812;2023-11-22T07:01:43;99677.25;;;13.41;100.00
10115;BME280;5097;43.260;27.812;2023-11-22T07:04:29;99686.09;;;13.16;100.00
10115;BME280;5097;43.260;27.812;2023-11-22T07:07:14;99688.25;;;12.72;100.00
10115;BME280;5097;43.260;27.812;2023-11-22T07:09:59;99717.81;;;13.44;100.00
10115;BME280;5097;43.260;27.812;2023-11-22T07:12:45;99693.75;;;12.95;100.00
10115;BME280;5097;43.260;27.812;2023-11-22T07:15:30;99725.53;;;13.47;100.00
10115;BME280;5097;43.260;27.812;2023-11-22T07:18:15;99727.97;;;13.87;100.00
10115;BME280;5097;43.260;27.812;2023-11-22T07:21:01;99739.63;;;14.33;100.00
10115;BME280;5097;43.260;27.812;2023-11-22T07:23:45;99701.75;;;14.06;100.00
10115;BME280;5097;43.260;27.812;2023-11-22T07:26:32;99719.50;;;13.32;100.00
10115;BME280;5097;43.260;27.812;2023-11-22T07:29:16;99697.00;;;13.74;100.00
10115;BME280;5097;43.260;27.812;2023-11-22T07:32:00;99722.75;;;14.10;100.00
10115;BME280;5097;43.260;27.812;2023-11-22T07:34:45;99693.88;;;13.56;100.00
10115;BME280;5097;43.260;27.812;2023-11-22T07:37:31;99721.28;;;14.05;100.00
10115;BME280;5097;43.260;27.812;2023-11-22T07:40:15;99710.06;;;14.37;100.00
10115;BME280;5097;43.260;27.812;2023-11-22T07:43:02;99707.81;;;13.71;100.00
10115;BME280;5097;43.260;27.812;2023-11-22T07:45:47;99727.47;;;13.19;100.00
10115;BME280;5097;43.260;27.812;2023-11-22T07:48:33;99714.97;;;13.08;100.00
10115;BME280;5097;43.260;27.812;2023-11-22T07:51:20;99726.41;;;13.34;100.00
10115;BME280;5097;43.260;27.812;2023-11-22T07:54:08;99702.66;;;13.20;100.00
10115;BME280;5097;43.260;27.812;2023-11-22T07:56:52;99707.75;;;12.97;100.00
10115;BME280;5097;43.260;27.812;2023-11-22T07:59:37;99701.50;;;12.85;100.00
10115;BME280;5097;43.260;27.812;2023-11-22T08:02:21;99717.31;;;13.00;100.00
10115;BME280;5097;43.260;27.812;2023-11-22T08:05:06;99725.97;;;13.28;100.00
10115;BME280;5097;43.260;27.812;2023-11-22T08:07:52;99739.09;;;13.55;100.00
10115;BME280;5097;43.260;27.812;2023-11-22T08:10:37;99744.03;;;12.97;100.00
10115;BME280;5097;43.260;27.812;2023-11-22T08:13:22;99725.56;;;12.95;100.00
10115;BME280;5097;43.260;27.812;2023-11-22T08:16:06;99749.75;;;13.29;100.00
10115;BME280;5097;43.260;27.812;2023-11-22T08:18:51;99748.16;;;13.14;100.00
10115;BME280;5097;43.260;27.812;2023-11-22T08:21:35;99739.59;;;13.10;100.00
10115;BME280;5097;43.260;27.812;2023-11-22T08:24:20;99621.25;;;12.06;100.00
10115;BME280;5097;43.260;27.812;2023-11-22T08:27:06;99737.00;;;13.34;100.00
10115;BME280;5097;43.260;27.812;2023-11-22T08:29:51;99744.25;;;13.06;100.00
10115;BME280;5097;43.260;27.812;2023-11-22T08:32:35;99750.72;;;13.41;100.00
10115;BME280;5097;43.260;27.812;2023-11-22T08:35:19;99756.75;;;13.30;100.00
10115;BME280;5097;43.260;27.812;2023-11-22T08:38:04;99741.38;;;13.10;100.00
10115;BME280;5097;43.260;27.812;2023-11-22T08:40:52;99764.91;;;13.90;99.27
10115;BME280;5097;43.260;27.812;2023-11-22T08:43:39;99736.38;;;13.44;98.12
10115;BME280;5097;43.260;27.812;2023-11-22T08:46:23;99663.56;;;13.48;96.48
10115;BME280;5097;43.260;27.812;2023-11-22T08:49:07;99780.44;;;14.07;96.87
10115;BME280;5097;43.260;27.812;2023-11-22T08:51:54;99790.22;;;14.31;94.04
10115;BME280;5097;43.260;27.812;2023-11-22T08:54:38;99772.28;;;14.46;94.71
10115;BME280;5097;43.260;27.812;2023-11-22T08:57:22;99766.28;;;14.55;93.61
10115;BME280;5097;43.260;27.812;2023-11-22T09:00:09;99768.28;;;14.76;92.23
10115;BME280;5097;43.260;27.812;2023-11-22T09:02:54;99762.13;;;14.75;92.69
10115;BME280;5097;43.260;27.812;2023-11-22T09:05:39;99769.41;;;14.73;92.36
10115;BME280;5097;43.260;27.812;2023-11-22T09:08:23;99758.47;;;14.05;96.45
10115;BME280;5097;43.260;27.812;2023-11-22T09:11:11;99776.53;;;14.49;94.21
10115;BME280;5097;43.260;27.812;2023-11-22T09:13:55;99774.84;;;13.99;95.18
10115;BME280;5097;43.260;27.812;2023-11-22T09:16:41;99781.06;;;14.35;94.77
10115;BME280;5097;43.260;27.812;2023-11-22T09:19:27;99779.25;;;14.36;93.92
10115;BME280;5097;43.260;27.812;2023-11-22T09:22:11;99702.06;;;14.73;92.40
10115;BME280;5097;43.260;27.812;2023-11-22T09:24:55;99800.56;;;15.64;88.78
10115;BME280;5097;43.260;27.812;2023-11-22T09:27:40;99790.72;;;14.61;93.82
10115;BME280;5097;43.260;27.812;2023-11-22T09:30:27;99804.75;;;14.98;95.38
10115;BME280;5097;43.260;27.812;2023-11-22T09:33:22;99821.72;;;15.65;93.41
10115;BME280;5097;43.260;27.812;2023-11-22T09:36:07;99815.75;;;16.51;89.67
10115;BME280;5097;43.260;27.812;2023-11-22T09:38:53;99822.56;;;15.77;92.30
10115;BME280;5097;43.260;27.812;2023-11-22T09:41:38;99814.84;;;15.51;94.48
10115;BME280;5097;43.260;27.812;2023-11-22T09:44:23;99815.75;;;15.05;94.27
10115;BME280;5097;43.260;27.812;2023-11-22T09:47:07;99820.50;;;14.04;99.89
10115;BME280;5097;43.260;27.812;2023-11-22T09:49:55;99832.09;;;14.03;100.00
10115;BME280;5097;43.260;27.812;2023-11-22T09:52:41;99808.97;;;14.41;100.00
10115;BME280;5097;43.260;27.812;2023-11-22T09:55:28;99810.50;;;14.92;98.48
10115;BME280;5097;43.260;27.812;2023-11-22T09:58:13;99817.47;;;14.46;99.93
10115;BME280;5097;43.260;27.812;2023-11-22T10:00:57;99800.09;;;14.05;100.00
10115;BME280;5097;43.260;27.812;2023-11-22T10:03:43;99804.25;;;14.33;100.00
10115;BME280;5097;43.260;27.812;2023-11-22T10:06:29;99817.72;;;14.67;99.73
10115;BME280;5097;43.260;27.812;2023-11-22T10:09:17;99813.59;;;14.63;100.00
10115;BME280;5097;43.260;27.812;2023-11-22T10:12:02;99818.94;;;14.74;100.00
10115;BME280;5097;43.260;27.812;2023-11-22T10:14:46;99819.47;;;14.31;100.00
10115;BME280;5097;43.260;27.812;2023-11-22T10:17:31;99827.09;;;14.60;100.00
10115;BME280;5097;43.260;27.812;2023-11-22T10:20:15;99819.53;;;14.67;100.00
10115;BME280;5097;43.260;27.812;2023-11-22T10:23:02;99832.31;;;14.37;100.00
10115;BME280;5097;43.260;27.812;2023-11-22T10:25:48;99847.44;;;14.24;100.00
10115;BME280;5097;43.260;27.812;2023-11-22T10:28:34;99827.03;;;14.24;100.00
10115;BME280;5097;43.260;27.812;2023-11-22T10:31:18;99842.22;;;14.22;100.00
10115;BME280;5097;43.260;27.812;2023-11-22T10:34:04;99834.81;;;13.90;100.00
10115;BME280;5097;43.260;27.812;2023-11-22T10:36:49;99831.50;;;14.24;100.00
10115;BME280;5097;43.260;27.812;2023-11-22T10:39:34;99811.41;;;13.46;100.00
10115;BME280;5097;43.260;27.812;2023-11-22T10:42:19;99836.66;;;13.64;100.00
10115;BME280;5097;43.260;27.812;2023-11-22T10:45:05;99827.72;;;14.02;100.00
10115;BME280;5097;43.260;27.812;2023-11-22T10:47:52;99843.25;;;13.96;100.00
10115;BME280;5097;43.260;27.812;2023-11-22T10:50:37;99839.28;;;14.38;100.00
10115;BME280;5097;43.260;27.812;2023-11-22T10:53:22;99838.66;;;13.73;100.00
10115;BME280;5097;43.260;27.812;2023-11-22T10:56:15;99840.47;;;13.47;100.00
10115;BME280;5097;43.260;27.812;2023-11-22T10:59:07;99833.50;;;13.46;100.00
10115;BME280;5097;43.260;27.812;2023-11-22T11:01:56;99840.66;;;13.05;100.00
10115;BME280;5097;43.260;27.812;2023-11-22T11:04:47;99851.59;;;13.27;100.00
10115;BME280;5097;43.260;27.812;2023-11-22T11:07:37;99849.25;;;13.35;100.00
10115;BME280;5097;43.260;27.812;2023-11-22T11:10:24;99830.03;;;13.05;100.00
10115;BME280;5097;43.260;27.812;2023-11-22T11:13:10;99840.31;;;12.97;100.00
10115;BME280;5097;43.260;27.812;2023-11-22T11:15:56;99853.91;;;13.05;100.00
10115;BME280;5097;43.260;27.812;2023-11-22T11:18:41;99854.56;;;13.09;100.00
10115;BME280;5097;43.260;27.812;2023-11-22T11:21:25;99870.72;;;13.32;100.00
10115;BME280;5097;43.260;27.812;2023-11-22T11:24:10;99873.47;;;13.82;100.00
10115;BME280;5097;43.260;27.812;2023-11-22T11:26:55;99832.38;;;13.23;100.00
10115;BME280;5097;43.260;27.812;2023-11-22T11:29:40;99864.38;;;13.73;100.00
10115;BME280;5097;43.260;27.812;2023-11-22T11:32:30;99874.56;;;13.66;100.00
10115;BME280;5097;43.260;27.812;2023-11-22T11:35:17;99847.22;;;13.13;100.00
10115;BME280;5097;43.260;27.812;2023-11-22T11:38:01;99871.03;;;13.14;100.00
10115;BME280;5097;43.260;27.812;2023-11-22T11:40:47;99869.78;;;12.93;100.00
10115;BME280;5097;43.260;27.812;2023-11-22T11:43:39;99852.56;;;12.72;100.00
10115;BME280;5097;43.260;27.812;2023-11-22T11:46:26;99875.41;;;12.88;100.00
10115;BME280;5097;43.260;27.812;2023-11-22T11:49:12;99891.81;;;12.80;100.00
10115;BME280;5097;43.260;27.812;2023-11-22T11:52:00;99880.47;;;12.51;100.00
10115;BME280;5097;43.260;27.812;2023-11-22T11:54:44;99881.94;;;12.42;100.00
10115;BME280;5097;43.260;27.812;2023-11-22T11:57:31;99889.78;;;12.44;100.00
10115;BME280;5097;43.260;27.812;2023-11-22T12:00:16;99895.81;;;12.46;100.00
10115;BME280;5097;43.260;27.812;2023-11-22T12:03:03;99855.53;;;12.68;100.00
10115;BME280;5097;43.260;27.812;2023-11-22T12:05:47;99906.78;;;12.81;100.00
10115;BME280;5097;43.260;27.812;2023-11-22T12:08:33;99890.47;;;12.60;100.00
10115;BME280;5097;43.260;27.812;2023-11-22T12:11:19;99877.78;;;12.65;100.00
10115;BME280;5097;43.260;27.812;2023-11-22T12:14:04;99900.31;;;12.85;100.00
10115;BME280;5097;43.260;27.812;2023-11-22T12:16:50;99898.75;;;12.14;100.00
10115;BME280;5097;43.260;27.812;2023-11-22T12:19:37;99906.41;;;12.18;100.00
10115;BME280;5097;43.260;27.812;2023-11-22T12:22:21;99912.50;;;12.33;100.00
10115;BME280;5097;43.260;27.812;2023-11-22T12:25:06;99919.94;;;12.14;100.00
10115;BME280;5097;43.260;27.812;2023-11-22T12:27:54;99886.75;;;11.94;100.00
10115;BME280;5097;43.260;27.812;2023-11-22T12:30:38;99914.06;;;11.94;100.00
10115;BME280;5097;43.260;27.812;2023-11-22T12:33:27;99922.31;;;12.04;100.00
10115;BME280;5097;43.260;27.812;2023-11-22T12:36:12;99929.28;;;11.76;100.00
10115;BME280;5097;43.260;27.812;2023-11-22T12:38:58;99917.50;;;11.96;100.00
10115;BME280;5097;43.260;27.812;2023-11-22T12:41:44;99939.03;;;12.19;100.00
10115;BME280;5097;43.260;27.812;2023-11-22T12:44:49;99936.34;;;12.33;100.00
10115;BME280;5097;43.260;27.812;2023-11-22T12:47:35;99951.31;;;12.20;100.00
10115;BME280;5097;43.260;27.812;2023-11-22T12:50:33;99943.84;;;12.12;100.00
10115;BME280;5097;43.260;27.812;2023-11-22T12:53:19;99944.81;;;11.97;100.00
10115;BME280;5097;43.260;27.812;2023-11-22T12:56:06;99975.56;;;11.99;100.00
10115;BME280;5097;43.260;27.812;2023-11-22T12:58:50;99977.47;;;11.81;100.00
10115;BME280;5097;43.260;27.812;2023-11-22T13:01:34;99966.81;;;11.83;100.00
10115;BME280;5097;43.260;27.812;2023-11-22T13:04:19;99983.72;;;11.66;100.00
10115;BME280;5097;43.260;27.812;2023-11-22T13:07:03;99978.59;;;11.77;100.00
10115;BME280;5097;43.260;27.812;2023-11-22T13:09:48;99992.19;;;11.26;100.00
10115;BME280;5097;43.260;27.812;2023-11-22T13:12:33;99991.78;;;11.18;100.00
10115;BME280;5097;43.260;27.812;2023-11-22T13:15:17;99982.69;;;11.07;100.00
10115;BME280;5097;43.260;27.812;2023-11-22T13:18:02;99987.81;;;11.11;100.00
10115;BME280;5097;43.260;27.812;2023-11-22T13:20:49;99982.97;;;11.03;100.00
10115;BME280;5097;43.260;27.812;2023-11-22T13:23:33;99996.41;;;10.98;100.00
10115;BME280;5097;43.260;27.812;2023-11-22T13:26:19;99990.06;;;10.70;100.00
10115;BME280;5097;43.260;27.812;2023-11-22T13:29:04;100007.78;;;11.00;100.00
10115;BME280;5097;43.260;27.812;2023-11-22T13:31:49;99988.88;;;10.60;100.00
10115;BME280;5097;43.260;27.812;2023-11-22T13:34:34;99979.16;;;10.45;100.00
10115;BME280;5097;43.260;27.812;2023-11-22T13:37:22;99994.25;;;10.59;100.00
10115;BME280;5097;43.260;27.812;2023-11-22T13:40:07;99984.94;;;10.51;100.00
10115;BME280;5097;43.260;27.812;2023-11-22T13:43:01;99988.59;;;10.15;100.00
10115;BME280;5097;43.260;27.812;2023-11-22T13:45:46;100006.25;;;10.80;100.00
10115;BME280;5097;43.260;27.812;2023-11-22T13:48:30;100000.66;;;10.21;100.00
10115;BME280;5097;43.260;27.812;2023-11-22T13:51:15;99993.22;;;10.12;100.00
10115;BME280;5097;43.260;27.812;2023-11-22T13:53:59;99994.94;;;10.13;100.00
10115;BME280;5097;43.260;27.812;2023-11-22T13:56:43;99984.19;;;10.16;100.00
10115;BME280;5097;43.260;27.812;2023-11-22T13:59:29;99974.31;;;10.03;100.00
10115;BME280;5097;43.260;27.812;2023-11-22T14:02:13;99998.41;;;9.80;100.00
10115;BME280;5097;43.260;27.812;2023-11-22T14:04:57;100006.25;;;9.81;100.00
10115;BME280;5097;43.260;27.812;2023-11-22T14:07:42;100005.88;;;9.71;100.00
10115;BME280;5097;43.260;27.812;2023-11-22T14:10:26;100000.44;;;9.75;100.00
10115;BME280;5097;43.260;27.812;2023-11-22T14:13:11;100011.63;;;9.62;100.00
10115;BME280;5097;43.260;27.812;2023-11-22T14:15:56;61367.53;;;-148.22;100.00
10115;BME280;5097;43.260;27.812;2023-11-22T14:18:40;61367.53;;;-148.22;100.00
10115;BME280;5097;43.260;27.812;2023-11-22T14:21:24;61367.53;;;-148.22;100.00
10115;BME280;5097;43.260;27.812;2023-11-22T14:24:09;61367.53;;;-148.22;100.00
10115;BME280;5097;43.260;27.812;2023-11-22T14:26:53;61367.53;;;-148.22;100.00
10115;BME280;5097;43.260;27.812;2023-11-22T14:29:37;61367.53;;;-148.22;100.00